createdAt,value
2019-06-08T00:02:20.593Z,96.96
2019-06-08T00:04:53.052Z,97.06
2019-06-08T00:07:25.429Z,96.61
2019-06-08T00:09:57.797Z,96.27
2019-06-08T00:12:30.561Z,96.35
2019-06-08T00:15:02.899Z,96.32
2019-06-08T00:17:38.941Z,96.17
2019-06-08T00:20:11.894Z,95.99
2019-06-08T00:22:45.197Z,96.11
2019-06-08T00:25:18.962Z,96.17
2019-06-08T00:27:52.126Z,96.09
2019-06-08T00:30:24.976Z,96.03
2019-06-08T00:32:57.763Z,96.17
2019-06-08T00:35:30.329Z,96.22
2019-06-08T00:38:03.016Z,96.25
2019-06-08T00:40:35.602Z,96.38
2019-06-08T00:43:09.298Z,96.26
2019-06-08T00:45:42.178Z,96.19
2019-06-08T00:48:14.857Z,96.25
2019-06-08T00:50:47.638Z,96.39
2019-06-08T00:53:21.287Z,96.10
2019-06-08T00:55:54.018Z,95.88
2019-06-08T00:58:26.498Z,95.82
2019-06-08T01:00:58.942Z,95.94
2019-06-08T01:03:31.961Z,96.13
2019-06-08T01:06:04.848Z,96.18
2019-06-08T01:08:37.632Z,96.27
2019-06-08T01:11:10.210Z,96.17
2019-06-08T01:13:42.884Z,95.96
2019-06-08T01:16:15.670Z,95.46
2019-06-08T01:18:48.452Z,94.76
2019-06-08T01:21:21.312Z,94.83
2019-06-08T01:23:54.193Z,95.39
2019-06-08T01:26:28.203Z,95.92
2019-06-08T01:29:00.634Z,95.94
2019-06-08T01:31:33.527Z,96.00
2019-06-08T01:34:06.273Z,95.85
2019-06-08T01:36:39.048Z,95.83
2019-06-08T01:39:11.989Z,95.78
2019-06-08T01:41:44.516Z,95.71
2019-06-08T01:44:17.188Z,95.92
2019-06-08T01:46:49.676Z,96.25
2019-06-08T01:49:22.240Z,96.38
2019-06-08T01:51:55.147Z,96.21
2019-06-08T01:54:29.625Z,96.17
2019-06-08T01:57:02.229Z,96.30
2019-06-08T01:59:35.012Z,96.60
2019-06-08T02:02:07.691Z,97.08
2019-06-08T02:04:40.372Z,97.29
2019-06-08T02:07:13.015Z,97.15
2019-06-08T02:09:45.829Z,96.97
2019-06-08T02:12:18.713Z,96.86
2019-06-08T02:14:51.929Z,96.80
2019-06-08T02:17:25.166Z,96.86
2019-06-08T02:19:57.882Z,96.84
2019-06-08T02:22:31.002Z,96.53
2019-06-08T02:25:04.566Z,96.32
2019-06-08T02:27:37.487Z,96.27
2019-06-08T02:30:12.386Z,96.30
2019-06-08T02:32:44.865Z,96.20
2019-06-08T02:35:18.994Z,96.13
2019-06-08T02:37:51.169Z,96.22
2019-06-08T02:40:23.928Z,96.27
2019-06-08T02:42:56.713Z,96.20
2019-06-08T02:45:31.836Z,96.00
2019-06-08T02:48:02.810Z,95.80
2019-06-08T02:50:52.370Z,95.81
2019-06-08T02:53:26.311Z,95.87
2019-06-08T02:55:58.962Z,96.07
2019-06-08T02:58:33.630Z,96.23
2019-06-08T03:01:07.873Z,96.50
2019-06-08T03:03:41.495Z,96.56
2019-06-08T03:06:15.736Z,96.57
2019-06-08T03:08:51.190Z,96.61
2019-06-08T03:11:24.298Z,96.68
2019-06-08T03:13:58.357Z,96.65
2019-06-08T03:16:31.285Z,96.56
2019-06-08T03:19:21.196Z,96.43
2019-06-08T03:21:38.808Z,96.36
2019-06-08T03:24:11.856Z,96.22
2019-06-08T03:26:44.437Z,95.83
2019-06-08T03:29:17.005Z,95.62
2019-06-08T03:31:55.864Z,95.53
2019-06-08T03:34:23.589Z,95.67
2019-06-08T03:36:57.599Z,95.64
2019-06-08T03:39:29.483Z,95.79
2019-06-08T03:42:01.849Z,96.05
2019-06-08T03:44:36.351Z,95.96
2019-06-08T03:47:08.784Z,95.20
2019-06-08T03:49:53.610Z,92.28
2019-06-08T03:52:15.622Z,90.92
2019-06-08T03:54:48.511Z,90.31
2019-06-08T03:57:20.790Z,90.06
2019-06-08T03:59:53.451Z,88.57
2019-06-08T04:02:25.835Z,85.23
2019-06-08T04:04:58.512Z,84.35
2019-06-08T04:07:31.304Z,81.87
2019-06-08T04:10:05.316Z,81.15
2019-06-08T04:12:39.738Z,80.30
2019-06-08T04:15:12.299Z,79.87
2019-06-08T04:17:46.253Z,79.63
2019-06-08T04:20:18.782Z,78.95
2019-06-08T04:22:51.173Z,78.16
2019-06-08T04:25:23.639Z,76.83
2019-06-08T04:27:56.413Z,75.47
2019-06-08T04:30:28.886Z,75.29
2019-06-08T04:33:01.789Z,73.72
2019-06-08T04:35:34.039Z,73.66
2019-06-08T04:38:06.717Z,74.35
2019-06-08T04:40:40.025Z,73.81
2019-06-08T04:43:13.209Z,73.29
2019-06-08T04:45:48.056Z,72.83
2019-06-08T04:48:21.125Z,72.53
2019-06-08T04:50:53.816Z,71.12
2019-06-08T04:53:26.776Z,70.48
2019-06-08T04:55:59.675Z,70.83
2019-06-08T04:58:32.088Z,71.31
2019-06-08T05:01:04.829Z,70.24
2019-06-08T05:03:39.245Z,69.73
2019-06-08T05:06:11.839Z,69.51
2019-06-08T05:08:45.211Z,70.24
2019-06-08T05:11:17.802Z,70.68
2019-06-08T05:13:50.451Z,70.19
2019-06-08T05:16:23.177Z,70.17
2019-06-08T05:18:56.725Z,70.74
2019-06-08T05:21:29.508Z,70.86
2019-06-08T05:24:02.031Z,70.44
2019-06-08T05:26:34.495Z,69.79
2019-06-08T05:29:07.079Z,68.10
2019-06-08T05:31:39.765Z,67.54
2019-06-08T05:34:12.436Z,67.68
2019-06-08T05:36:45.439Z,67.58
2019-06-08T05:39:18.204Z,66.55
2019-06-08T05:41:52.209Z,66.36
2019-06-08T05:44:24.790Z,67.75
2019-06-08T05:46:57.478Z,67.47
2019-06-08T05:49:30.064Z,64.80
2019-06-08T05:52:02.792Z,63.64
2019-06-08T05:54:39.801Z,63.33
2019-06-08T05:57:14.069Z,63.12
2019-06-08T05:59:50.733Z,63.08
2019-06-08T06:02:29.289Z,62.22
2019-06-08T06:05:02.068Z,62.10
2019-06-08T06:07:34.580Z,61.92
2019-06-08T06:10:07.366Z,62.07
2019-06-08T06:12:40.910Z,60.27
2019-06-08T06:15:13.949Z,60.53
2019-06-08T06:17:48.453Z,60.45
2019-06-08T06:20:21.874Z,59.39
2019-06-08T06:22:58.446Z,61.26
2019-06-08T06:25:29.553Z,62.26
2019-06-08T06:28:05.438Z,61.89
2019-06-08T06:30:36.481Z,61.63
2019-06-08T06:33:09.065Z,59.79
2019-06-08T06:35:41.739Z,59.52
2019-06-08T06:38:14.111Z,58.86
2019-06-08T06:40:48.051Z,59.00
2019-06-08T06:43:20.597Z,59.10
2019-06-08T06:45:53.073Z,59.17
2019-06-08T06:48:25.880Z,58.89
2019-06-08T06:50:58.394Z,57.95
2019-06-08T06:53:31.148Z,56.43
2019-06-08T06:56:03.583Z,55.22
2019-06-08T06:58:37.193Z,55.41
2019-06-08T07:01:09.764Z,56.57
2019-06-08T07:03:44.121Z,55.56
2019-06-08T07:06:16.760Z,53.76
2019-06-08T07:08:50.318Z,53.76
2019-06-08T07:11:22.736Z,53.19
2019-06-08T07:13:55.620Z,53.11
2019-06-08T07:16:28.714Z,52.42
2019-06-08T07:19:01.301Z,52.09
2019-06-08T07:21:41.807Z,51.38
2019-06-08T07:24:08.167Z,52.15
2019-06-08T07:26:40.461Z,52.99
2019-06-08T07:29:13.568Z,50.21
2019-06-08T07:31:46.930Z,49.03
2019-06-08T07:34:20.413Z,50.20
2019-06-08T07:36:53.559Z,49.45
2019-06-08T07:39:27.897Z,50.41
2019-06-08T07:42:00.426Z,51.68
2019-06-08T07:44:33.106Z,49.49
2019-06-08T07:47:05.694Z,48.74
2019-06-08T07:49:38.673Z,48.84
2019-06-08T07:52:11.279Z,49.93
2019-06-08T07:54:43.926Z,48.02
2019-06-08T07:57:16.301Z,49.00
2019-06-08T07:59:50.310Z,50.50
2019-06-08T08:02:22.709Z,47.87
2019-06-08T08:04:56.688Z,48.49
2019-06-08T08:07:29.267Z,49.31
2019-06-08T08:10:01.778Z,49.36
2019-06-08T08:12:34.620Z,49.63
2019-06-08T08:15:08.739Z,48.21
2019-06-08T08:17:41.592Z,49.11
2019-06-08T08:20:14.309Z,48.86
2019-06-08T08:22:49.274Z,48.61
2019-06-08T08:25:20.897Z,47.85
2019-06-08T08:27:53.674Z,48.31
2019-06-08T08:30:28.425Z,47.07
2019-06-08T08:33:03.144Z,46.06
2019-06-08T08:35:35.093Z,46.87
2019-06-08T08:38:07.797Z,46.42
2019-06-08T08:40:40.246Z,47.15
2019-06-08T08:43:13.037Z,46.21
2019-06-08T08:45:47.686Z,46.09
2019-06-08T08:48:27.497Z,45.28
2019-06-08T08:50:54.362Z,45.84
2019-06-08T08:53:27.993Z,45.92
2019-06-08T08:56:02.410Z,46.01
2019-06-08T08:58:34.744Z,46.41
2019-06-08T09:01:08.166Z,46.01
2019-06-08T09:03:40.817Z,45.35
2019-06-08T09:06:13.497Z,47.41
2019-06-08T09:08:48.387Z,47.79
2019-06-08T09:11:20.401Z,46.56
2019-06-08T09:13:53.571Z,45.28
2019-06-08T09:16:28.554Z,44.82
2019-06-08T09:19:02.899Z,45.61
2019-06-08T09:21:34.591Z,45.04
2019-06-08T09:24:07.828Z,43.71
2019-06-08T09:26:40.274Z,45.28
2019-06-08T09:29:13.053Z,44.68
2019-06-08T09:31:48.848Z,44.66
2019-06-08T09:34:20.118Z,45.61
2019-06-08T09:36:54.952Z,45.81
2019-06-08T09:39:28.635Z,43.35
2019-06-08T09:42:03.094Z,43.20
2019-06-08T09:44:37.552Z,44.18
2019-06-08T09:47:12.608Z,44.39
2019-06-08T09:49:43.605Z,43.70
2019-06-08T09:52:18.368Z,44.40
2019-06-08T09:54:50.401Z,42.91
2019-06-08T09:57:22.868Z,42.48
2019-06-08T09:59:57.202Z,43.78
2019-06-08T10:02:29.999Z,43.53
2019-06-08T10:05:04.497Z,42.84
2019-06-08T10:07:38.807Z,43.50
2019-06-08T10:10:11.278Z,42.62
2019-06-08T10:12:44.058Z,42.83
2019-06-08T10:15:18.714Z,43.05
2019-06-08T10:17:52.097Z,42.82
2019-06-08T10:20:24.573Z,45.22
2019-06-08T10:22:59.700Z,43.87
2019-06-08T10:25:31.144Z,43.74
2019-06-08T10:28:09.890Z,43.43
2019-06-08T10:30:38.421Z,43.69
2019-06-08T10:33:10.962Z,42.74
2019-06-08T10:35:44.221Z,40.36
2019-06-08T10:38:18.085Z,40.82
2019-06-08T10:41:10.805Z,40.84
2019-06-08T10:43:39.073Z,41.93
2019-06-08T10:46:16.619Z,40.97
2019-06-08T10:48:48.432Z,40.58
2019-06-08T10:51:19.757Z,39.44
2019-06-08T10:53:53.631Z,41.04
2019-06-08T10:56:28.378Z,41.41
2019-06-08T10:59:03.457Z,41.60
2019-06-08T11:01:34.980Z,40.25
2019-06-08T11:04:09.263Z,40.57
2019-06-08T11:06:41.773Z,40.54
2019-06-08T11:09:15.362Z,40.33
2019-06-08T11:11:48.319Z,38.09
2019-06-08T11:14:22.780Z,37.02
2019-06-08T11:16:55.047Z,37.57
2019-06-08T11:19:27.731Z,37.90
2019-06-08T11:22:02.665Z,39.54
2019-06-08T11:24:34.226Z,40.54
2019-06-08T11:27:10.605Z,40.51
2019-06-08T11:29:40.910Z,40.48
2019-06-08T11:32:13.381Z,40.47
2019-06-08T11:34:48.665Z,40.09
2019-06-08T11:37:21.227Z,38.79
2019-06-08T11:39:53.799Z,39.73
2019-06-08T11:42:28.534Z,39.50
2019-06-08T11:45:02.101Z,39.34
2019-06-08T11:47:34.696Z,39.58
2019-06-08T11:50:11.653Z,40.17
2019-06-08T11:52:43.066Z,40.62
2019-06-08T11:55:18.029Z,41.16
2019-06-08T11:57:50.006Z,40.94
2019-06-08T12:00:41.937Z,41.44
2019-06-08T12:03:14.825Z,40.17
2019-06-08T12:05:47.780Z,39.93
2019-06-08T12:08:21.515Z,39.77
2019-06-08T12:10:54.451Z,39.41
2019-06-08T12:13:27.822Z,39.86
2019-06-08T12:16:00.177Z,37.73
2019-06-08T12:18:32.537Z,34.70
2019-06-08T12:21:05.572Z,36.48
2019-06-08T12:23:37.618Z,37.56
2019-06-08T12:26:10.235Z,38.33
2019-06-08T12:28:42.757Z,39.33
2019-06-08T12:31:19.314Z,37.08
2019-06-08T12:33:49.477Z,38.52
2019-06-08T12:36:22.226Z,37.04
2019-06-08T12:38:54.825Z,36.62
2019-06-08T12:41:31.133Z,36.29
2019-06-08T12:44:02.110Z,36.43
2019-06-08T12:46:34.580Z,37.19
2019-06-08T12:49:08.635Z,37.80
2019-06-08T12:51:41.354Z,38.73
2019-06-08T12:54:14.442Z,38.16
2019-06-08T12:56:47.946Z,37.38
2019-06-08T12:59:22.539Z,38.40
2019-06-08T13:01:54.549Z,39.13
2019-06-08T13:04:28.664Z,40.60
2019-06-08T13:07:01.137Z,40.67
2019-06-08T13:09:33.824Z,38.52
2019-06-08T13:12:07.926Z,39.70
2019-06-08T13:14:40.505Z,40.00
2019-06-08T13:17:14.599Z,41.63
2019-06-08T13:19:48.219Z,42.34
2019-06-08T13:22:27.863Z,40.70
2019-06-08T13:24:54.911Z,40.09
2019-06-08T13:27:28.196Z,39.50
2019-06-08T13:30:00.687Z,37.16
2019-06-08T13:32:33.563Z,39.24
2019-06-08T13:35:10.424Z,41.20
2019-06-08T13:37:43.124Z,39.79
2019-06-08T13:40:18.586Z,40.84
2019-06-08T13:42:51.256Z,38.77
2019-06-08T13:45:23.824Z,36.52
2019-06-08T13:47:58.718Z,37.59
2019-06-08T13:50:30.629Z,39.11
2019-06-08T13:53:03.404Z,36.84
2019-06-08T13:55:48.368Z,34.92
2019-06-08T13:58:10.096Z,33.83
2019-06-08T14:00:42.772Z,34.25
2019-06-08T14:03:18.174Z,35.15
2019-06-08T14:05:49.563Z,34.19
2019-06-08T14:08:23.927Z,32.38
2019-06-08T14:11:00.445Z,31.87
2019-06-08T14:13:34.254Z,28.78
2019-06-08T14:16:04.690Z,29.10
2019-06-08T14:18:38.606Z,28.87
2019-06-08T14:21:09.971Z,29.47
2019-06-08T14:23:42.518Z,30.01
2019-06-08T14:26:14.993Z,29.96
2019-06-08T14:28:50.361Z,29.94
2019-06-08T14:31:23.995Z,30.27
2019-06-08T14:33:56.111Z,28.64
2019-06-08T14:36:30.279Z,29.62
2019-06-08T14:39:02.814Z,27.89
2019-06-08T14:41:36.813Z,28.49
2019-06-08T14:44:09.290Z,28.76
2019-06-08T14:46:41.633Z,28.89
2019-06-08T14:49:13.821Z,29.33
2019-06-08T14:51:50.405Z,30.49
2019-06-08T14:54:26.541Z,32.50
2019-06-08T14:56:57.780Z,32.69
2019-06-08T14:59:31.800Z,36.32
2019-06-08T15:02:04.722Z,38.46
2019-06-08T15:04:39.893Z,40.04
2019-06-08T15:07:11.295Z,41.69
2019-06-08T15:09:43.657Z,42.53
2019-06-08T15:12:17.879Z,43.77
2019-06-08T15:14:50.456Z,45.85
2019-06-08T15:17:23.806Z,47.25
2019-06-08T15:19:55.836Z,49.15
2019-06-08T15:22:29.066Z,50.64
2019-06-08T15:25:02.296Z,50.54
2019-06-08T15:27:35.076Z,50.45
2019-06-08T15:30:08.067Z,51.42
2019-06-08T15:32:40.439Z,49.50
2019-06-08T15:35:13.528Z,48.46
2019-06-08T15:37:47.845Z,48.02
2019-06-08T15:40:21.468Z,47.15
2019-06-08T15:42:54.018Z,47.33
2019-06-08T15:45:30.941Z,48.01
2019-06-08T15:48:01.848Z,47.47
2019-06-08T15:50:34.826Z,45.24
2019-06-08T15:53:08.292Z,43.02
2019-06-08T15:55:40.805Z,42.20
2019-06-08T16:00:46.165Z,43.71
2019-06-08T16:03:18.794Z,42.89
2019-06-08T16:05:50.727Z,42.05
2019-06-08T16:08:23.713Z,41.74
2019-06-08T16:10:56.486Z,39.85
2019-06-08T16:13:28.842Z,40.18
2019-06-08T16:16:00.934Z,39.37
2019-06-08T16:18:33.591Z,39.84
2019-06-08T16:21:06.045Z,39.00
2019-06-08T16:23:38.960Z,39.14
2019-06-08T16:26:11.322Z,39.91
2019-06-08T16:28:43.999Z,39.74
2019-06-08T16:31:16.784Z,40.71
2019-06-08T16:33:49.261Z,40.80
2019-06-08T16:36:22.669Z,41.04
2019-06-08T16:38:55.139Z,42.15
2019-06-08T16:41:28.092Z,44.14
2019-06-08T16:44:00.594Z,45.96
2019-06-08T16:46:34.754Z,48.10
2019-06-08T16:49:08.321Z,50.21
2019-06-08T16:51:41.089Z,52.17
2019-06-08T16:54:13.722Z,52.82
2019-06-08T16:56:46.144Z,53.51
2019-06-08T16:59:18.924Z,54.39
2019-06-08T17:01:51.711Z,55.78
2019-06-08T17:04:24.185Z,57.35
2019-06-08T17:06:56.885Z,58.78
2019-06-08T17:09:29.668Z,59.23
2019-06-08T17:12:02.342Z,59.79
2019-06-08T17:14:36.326Z,61.00
2019-06-08T17:17:08.809Z,61.59
2019-06-08T17:19:41.489Z,62.20
2019-06-08T17:22:14.071Z,62.66
2019-06-08T17:24:46.542Z,62.56
2019-06-08T17:27:26.820Z,62.93
2019-06-08T17:29:53.539Z,63.05
2019-06-08T17:32:26.219Z,63.50
2019-06-08T17:34:58.594Z,64.37
2019-06-08T17:37:31.699Z,64.37
2019-06-08T17:40:04.969Z,64.44
2019-06-08T17:42:37.731Z,65.04
2019-06-08T17:45:10.375Z,65.29
2019-06-08T17:47:43.015Z,64.32
2019-06-08T17:50:15.794Z,63.20
2019-06-08T17:52:48.165Z,63.22
2019-06-08T17:55:22.178Z,63.26
2019-06-08T17:57:54.750Z,64.65
2019-06-08T18:00:27.292Z,65.96
2019-06-08T18:03:00.715Z,66.19
2019-06-08T18:05:34.334Z,66.05
2019-06-08T18:08:08.237Z,66.40
2019-06-08T18:10:41.789Z,66.59
2019-06-08T18:13:14.727Z,67.90
2019-06-08T18:15:48.295Z,69.34
2019-06-08T18:18:20.900Z,70.16
2019-06-08T18:20:53.604Z,69.10
2019-06-08T18:23:27.891Z,70.00
2019-06-08T18:26:00.496Z,69.98
2019-06-08T18:28:34.502Z,69.53
2019-06-08T18:31:07.506Z,69.10
2019-06-08T18:33:41.683Z,70.17
2019-06-08T18:36:13.861Z,69.82
2019-06-08T18:38:48.529Z,67.90
2019-06-08T18:41:20.648Z,67.72
2019-06-08T18:43:53.129Z,67.75
2019-06-08T18:46:27.229Z,68.05
2019-06-08T18:48:59.617Z,68.83
2019-06-08T18:51:32.289Z,67.79
2019-06-08T18:54:11.320Z,68.63
2019-06-08T18:56:41.877Z,69.65
2019-06-08T18:59:14.741Z,70.50
2019-06-08T19:01:49.460Z,71.59
2019-06-08T19:04:21.527Z,71.66
2019-06-08T19:06:55.055Z,69.07
2019-06-08T19:09:28.423Z,68.60
2019-06-08T19:12:00.793Z,68.43
2019-06-08T19:14:33.374Z,68.36
2019-06-08T19:17:07.537Z,69.41
2019-06-08T19:19:44.331Z,71.34
2019-06-08T19:22:14.076Z,72.74
2019-06-08T19:24:49.474Z,73.50
2019-06-08T19:40:09.892Z,75.88
2019-06-08T19:42:53.029Z,76.36
2019-06-08T19:45:18.163Z,76.67
2019-06-08T19:47:50.694Z,76.14
2019-06-08T19:50:23.373Z,74.08
2019-06-08T19:52:57.848Z,73.19
2019-06-08T19:55:30.889Z,72.29
2019-06-08T19:58:03.254Z,72.02
2019-06-08T20:00:38.667Z,72.05
2019-06-08T20:03:10.258Z,71.51
2019-06-08T20:05:42.926Z,70.99
2019-06-08T20:10:50.715Z,71.55
2019-06-08T20:13:23.230Z,70.90
2019-06-08T20:16:01.280Z,69.47
2019-06-08T20:18:29.817Z,69.53
2019-06-08T20:21:02.598Z,69.89
2019-06-08T20:23:35.274Z,69.38
2019-06-08T20:26:08.500Z,70.17
2019-06-08T20:28:43.542Z,71.04
2019-06-08T20:31:18.043Z,70.30
2019-06-08T20:33:51.959Z,69.53
2019-06-08T20:36:24.203Z,69.21
2019-06-08T20:38:58.359Z,68.99
2019-06-08T20:41:31.036Z,69.06
2019-06-08T20:44:03.372Z,69.39
2019-06-08T20:46:37.784Z,70.03
2019-06-08T20:49:10.267Z,70.59
2019-06-08T20:51:42.944Z,71.25
2019-06-08T20:54:17.242Z,72.27
2019-06-08T20:56:50.904Z,72.41
2019-06-08T20:59:29.972Z,71.87
2019-06-08T21:01:58.815Z,72.40
2019-06-08T21:04:31.670Z,73.85
2019-06-08T21:07:04.551Z,73.06
2019-06-08T21:09:38.358Z,72.37
2019-06-08T21:12:10.842Z,72.05
2019-06-08T21:14:45.125Z,73.06
2019-06-08T21:17:18.041Z,74.40
2019-06-08T21:19:50.882Z,74.26
2019-06-08T21:22:23.288Z,73.77
2019-06-08T21:24:59.760Z,74.06
2019-06-08T21:27:29.192Z,73.90
2019-06-08T21:30:08.414Z,73.47
2019-06-08T21:32:37.184Z,73.26
2019-06-08T21:35:10.784Z,73.71
2019-06-08T21:37:43.365Z,74.60
2019-06-08T21:40:17.602Z,74.40
2019-06-08T21:42:52.126Z,74.45
2019-06-08T21:45:24.063Z,74.74
2019-06-08T21:47:59.002Z,74.44
2019-06-08T21:50:30.755Z,75.01
2019-06-08T21:53:03.442Z,75.44
2019-06-08T21:55:38.062Z,75.74
2019-06-08T21:58:10.023Z,75.64
2019-06-08T22:00:43.698Z,75.49
2019-06-08T22:03:17.644Z,75.41
2019-06-08T22:05:50.062Z,73.99
2019-06-08T22:08:22.793Z,73.66
2019-06-08T22:10:58.953Z,74.19
2019-06-08T22:13:29.769Z,74.47
2019-06-08T22:16:04.257Z,75.03
2019-06-08T22:18:38.064Z,75.48
2019-06-08T22:21:10.692Z,76.11
2019-06-08T22:23:43.167Z,76.50
2019-06-08T22:26:17.783Z,76.62
2019-06-08T22:28:52.067Z,77.07
2019-06-08T22:31:27.603Z,76.91
2019-06-08T22:34:02.075Z,76.09
2019-06-08T22:36:33.325Z,76.58
2019-06-08T22:39:08.081Z,77.14
2019-06-08T22:41:42.382Z,77.87
2019-06-08T22:44:17.575Z,78.54
2019-06-08T22:46:49.170Z,79.15
2019-06-08T22:49:21.643Z,79.35
2019-06-08T22:51:57.286Z,78.51
2019-06-08T22:54:28.349Z,78.93
2019-06-08T22:57:02.952Z,79.37
2019-06-08T22:59:37.042Z,79.89
2019-06-08T23:02:09.380Z,80.53
2019-06-08T23:04:42.119Z,81.03
2019-06-08T23:07:28.400Z,81.16
2019-06-08T23:09:48.609Z,81.28
2019-06-08T23:12:21.213Z,81.47
2019-06-08T23:14:54.357Z,81.81
2019-06-08T23:17:28.011Z,81.55
2019-06-08T23:20:01.883Z,80.54
2019-06-08T23:22:33.774Z,79.34
2019-06-08T23:25:08.904Z,78.31
2019-06-08T23:27:40.540Z,76.99
2019-06-08T23:30:13.288Z,75.45
2019-06-08T23:32:47.905Z,76.34
2019-06-08T23:35:19.012Z,77.54
2019-06-08T23:37:51.050Z,77.66
2019-06-08T23:40:23.835Z,77.43
2019-06-08T23:42:58.502Z,76.93
2019-06-08T23:45:30.623Z,76.50
2019-06-08T23:48:04.594Z,77.06
2019-06-08T23:50:37.935Z,77.52
2019-06-08T23:53:10.953Z,78.05
2019-06-08T23:55:43.733Z,78.22
2019-06-08T23:58:17.723Z,78.10
